sensor_id;sensor_type;location;lat;lon;timestamp;temperature;humidity
21518;DHT22;61765;45.794;24.150;2022-11-10T00:00:05;13.30;91.70
21518;DHT22;61765;45.794;24.150;2022-11-10T00:08:29;13.40;91.40
21518;DHT22;61765;45.794;24.150;2022-11-10T00:16:56;13.40;91.40
21518;DHT22;61765;45.794;24.150;2022-11-10T00:25:25;13.30;91.50
21518;DHT22;61765;45.794;24.150;2022-11-10T00:33:52;13.30;91.30
21518;DHT22;61765;45.794;24.150;2022-11-10T00:42:16;12.90;91.90
21518;DHT22;61765;45.794;24.150;2022-11-10T00:50:43;13.00;91.70
21518;DHT22;61765;45.794;24.150;2022-11-10T00:59:07;13.00;91.60
21518;DHT22;61765;45.794;24.150;2022-11-10T01:07:34;13.10;91.50
21518;DHT22;61765;45.794;24.150;2022-11-10T01:16:03;12.80;91.60
21518;DHT22;61765;45.794;24.150;2022-11-10T01:24:29;12.80;91.70
21518;DHT22;61765;45.794;24.150;2022-11-10T01:32:54;12.90;91.50
21518;DHT22;61765;45.794;24.150;2022-11-10T01:41:21;12.80;91.50
21518;DHT22;61765;45.794;24.150;2022-11-10T01:49:45;12.80;91.60
21518;DHT22;61765;45.794;24.150;2022-11-10T01:58:14;12.70;91.70
21518;DHT22;61765;45.794;24.150;2022-11-10T02:06:41;12.80;91.70
21518;DHT22;61765;45.794;24.150;2022-11-10T02:15:13;12.40;92.00
21518;DHT22;61765;45.794;24.150;2022-11-10T02:23:48;11.70;92.40
21518;DHT22;61765;45.794;24.150;2022-11-10T02:32:12;11.70;92.90
21518;DHT22;61765;45.794;24.150;2022-11-10T02:40:38;11.70;92.60
21518;DHT22;61765;45.794;24.150;2022-11-10T02:49:02;11.50;92.70
21518;DHT22;61765;45.794;24.150;2022-11-10T02:57:30;11.70;92.80
21518;DHT22;61765;45.794;24.150;2022-11-10T03:05:54;10.50;93.70
21518;DHT22;61765;45.794;24.150;2022-11-10T03:14:21;10.70;93.60
21518;DHT22;61765;45.794;24.150;2022-11-10T03:22:45;10.60;93.50
21518;DHT22;61765;45.794;24.150;2022-11-10T03:31:12;10.60;93.50
21518;DHT22;61765;45.794;24.150;2022-11-10T03:39:36;10.40;93.60
21518;DHT22;61765;45.794;24.150;2022-11-10T03:48:02;10.60;92.70
21518;DHT22;61765;45.794;24.150;2022-11-10T03:56:26;10.20;92.80
21518;DHT22;61765;45.794;24.150;2022-11-10T04:04:52;9.80;93.30
21518;DHT22;61765;45.794;24.150;2022-11-10T04:13:29;9.80;93.30
21518;DHT22;61765;45.794;24.150;2022-11-10T04:22:08;10.30;92.60
21518;DHT22;61765;45.794;24.150;2022-11-10T04:30:52;10.10;92.50
21518;DHT22;61765;45.794;24.150;2022-11-10T04:39:18;10.00;93.00
21518;DHT22;61765;45.794;24.150;2022-11-10T04:47:42;10.30;92.60
21518;DHT22;61765;45.794;24.150;2022-11-10T04:56:09;10.50;92.10
21518;DHT22;61765;45.794;24.150;2022-11-10T05:04:36;10.70;92.00
21518;DHT22;61765;45.794;24.150;2022-11-10T05:13:02;10.70;91.80
21518;DHT22;61765;45.794;24.150;2022-11-10T05:21:27;10.70;91.60
21518;DHT22;61765;45.794;24.150;2022-11-10T05:29:54;10.70;91.40
21518;DHT22;61765;45.794;24.150;2022-11-10T05:38:18;10.40;91.30
21518;DHT22;61765;45.794;24.150;2022-11-10T05:46:47;10.00;91.80
21518;DHT22;61765;45.794;24.150;2022-11-10T05:55:15;10.00;92.20
21518;DHT22;61765;45.794;24.150;2022-11-10T06:03:41;9.70;92.00
21518;DHT22;61765;45.794;24.150;2022-11-10T06:12:06;9.90;92.10
21518;DHT22;61765;45.794;24.150;2022-11-10T06:20:33;10.00;91.90
21518;DHT22;61765;45.794;24.150;2022-11-10T06:28:57;9.70;92.50
21518;DHT22;61765;45.794;24.150;2022-11-10T06:37:23;9.40;92.70
21518;DHT22;61765;45.794;24.150;2022-11-10T06:45:47;9.70;92.20
21518;DHT22;61765;45.794;24.150;2022-11-10T06:54:14;9.70;93.10
21518;DHT22;61765;45.794;24.150;2022-11-10T07:02:38;10.40;92.30
21518;DHT22;61765;45.794;24.150;2022-11-10T07:11:05;11.00;91.90
21518;DHT22;61765;45.794;24.150;2022-11-10T07:19:29;11.20;91.10
21518;DHT22;61765;45.794;24.150;2022-11-10T07:27:57;11.80;90.90
21518;DHT22;61765;45.794;24.150;2022-11-10T07:36:22;12.60;90.20
21518;DHT22;61765;45.794;24.150;2022-11-10T07:44:51;13.10;89.50
21518;DHT22;61765;45.794;24.150;2022-11-10T07:53:18;13.60;87.90
21518;DHT22;61765;45.794;24.150;2022-11-10T08:01:45;14.40;86.40
21518;DHT22;61765;45.794;24.150;2022-11-10T08:10:10;14.60;86.00
21518;DHT22;61765;45.794;24.150;2022-11-10T08:18:36;15.10;86.70
21518;DHT22;61765;45.794;24.150;2022-11-10T08:27:00;20.30;74.00
21518;DHT22;61765;45.794;24.150;2022-11-10T08:35:29;25.70;60.40
21518;DHT22;61765;45.794;24.150;2022-11-10T08:43:53;28.60;53.60
21518;DHT22;61765;45.794;24.150;2022-11-10T08:52:20;28.70;51.10
21518;DHT22;61765;45.794;24.150;2022-11-10T09:00:44;26.70;52.60
21518;DHT22;61765;45.794;24.150;2022-11-10T09:09:11;24.50;57.30
21518;DHT22;61765;45.794;24.150;2022-11-10T09:17:35;28.70;53.40
21518;DHT22;61765;45.794;24.150;2022-11-10T09:26:01;29.90;48.80
21518;DHT22;61765;45.794;24.150;2022-11-10T09:34:28;29.90;48.50
21518;DHT22;61765;45.794;24.150;2022-11-10T09:42:58;32.10;47.20
21518;DHT22;61765;45.794;24.150;2022-11-10T09:51:24;34.60;42.80
21518;DHT22;61765;45.794;24.150;2022-11-10T09:59:52;30.10;45.10
21518;DHT22;61765;45.794;24.150;2022-11-10T10:08:25;23.90;54.20
21518;DHT22;61765;45.794;24.150;2022-11-10T10:16:59;20.70;60.40
21518;DHT22;61765;45.794;24.150;2022-11-10T10:25:27;18.60;66.80
21518;DHT22;61765;45.794;24.150;2022-11-10T10:33:54;18.00;70.20
21518;DHT22;61765;45.794;24.150;2022-11-10T10:42:28;17.50;72.30
21518;DHT22;61765;45.794;24.150;2022-11-10T10:50:55;17.20;74.30
21518;DHT22;61765;45.794;24.150;2022-11-10T10:59:21;18.10;72.40
21518;DHT22;61765;45.794;24.150;2022-11-10T11:07:57;19.20;70.20
21518;DHT22;61765;45.794;24.150;2022-11-10T11:16:22;19.70;68.20
21518;DHT22;61765;45.794;24.150;2022-11-10T11:24:52;20.10;66.50
21518;DHT22;61765;45.794;24.150;2022-11-10T11:33:34;20.40;64.60
21518;DHT22;61765;45.794;24.150;2022-11-10T11:42:05;20.60;64.30
21518;DHT22;61765;45.794;24.150;2022-11-10T11:50:37;20.80;63.60
21518;DHT22;61765;45.794;24.150;2022-11-10T11:59:18;21.00;62.10
21518;DHT22;61765;45.794;24.150;2022-11-10T12:07:51;21.00;62.70
21518;DHT22;61765;45.794;24.150;2022-11-10T12:16:21;20.70;62.80
21518;DHT22;61765;45.794;24.150;2022-11-10T12:25:00;20.90;63.40
21518;DHT22;61765;45.794;24.150;2022-11-10T12:33:35;21.10;62.00
21518;DHT22;61765;45.794;24.150;2022-11-10T12:42:02;20.70;62.70
21518;DHT22;61765;45.794;24.150;2022-11-10T12:50:49;20.70;63.80
21518;DHT22;61765;45.794;24.150;2022-11-10T12:59:27;20.50;63.80
21518;DHT22;61765;45.794;24.150;2022-11-10T13:08:14;20.40;65.30
21518;DHT22;61765;45.794;24.150;2022-11-10T13:16:48;20.30;65.90
21518;DHT22;61765;45.794;24.150;2022-11-10T13:34:26;20.10;66.40
21518;DHT22;61765;45.794;24.150;2022-11-10T13:43:10;20.00;66.60
21518;DHT22;61765;45.794;24.150;2022-11-10T13:51:41;19.90;67.10
21518;DHT22;61765;45.794;24.150;2022-11-10T14:00:23;19.90;67.20
21518;DHT22;61765;45.794;24.150;2022-11-10T14:08:53;19.70;68.20
21518;DHT22;61765;45.794;24.150;2022-11-10T14:17:20;19.70;68.60
21518;DHT22;61765;45.794;24.150;2022-11-10T14:25:53;19.60;69.00
21518;DHT22;61765;45.794;24.150;2022-11-10T14:34:18;19.50;70.30
21518;DHT22;61765;45.794;24.150;2022-11-10T14:42:46;19.30;71.50
21518;DHT22;61765;45.794;24.150;2022-11-10T14:51:12;19.30;72.50
21518;DHT22;61765;45.794;24.150;2022-11-10T14:59:40;19.10;73.70
21518;DHT22;61765;45.794;24.150;2022-11-10T15:08:05;19.00;74.60
21518;DHT22;61765;45.794;24.150;2022-11-10T15:16:33;19.00;75.20
21518;DHT22;61765;45.794;24.150;2022-11-10T15:24:59;18.90;75.40
21518;DHT22;61765;45.794;24.150;2022-11-10T15:33:29;18.70;75.80
21518;DHT22;61765;45.794;24.150;2022-11-10T15:41:57;18.70;76.30
21518;DHT22;61765;45.794;24.150;2022-11-10T15:50:23;18.60;76.50
21518;DHT22;61765;45.794;24.150;2022-11-10T15:58:49;18.60;76.50
21518;DHT22;61765;45.794;24.150;2022-11-10T16:07:23;18.50;76.80
21518;DHT22;61765;45.794;24.150;2022-11-10T16:15:47;18.40;76.80
21518;DHT22;61765;45.794;24.150;2022-11-10T16:24:14;18.40;77.00
21518;DHT22;61765;45.794;24.150;2022-11-10T16:32:38;18.40;77.10
21518;DHT22;61765;45.794;24.150;2022-11-10T16:41:12;18.40;77.30
21518;DHT22;61765;45.794;24.150;2022-11-10T16:49:43;18.40;77.40
21518;DHT22;61765;45.794;24.150;2022-11-10T16:58:11;18.30;77.10
21518;DHT22;61765;45.794;24.150;2022-11-10T17:06:36;18.30;77.00
21518;DHT22;61765;45.794;24.150;2022-11-10T17:15:03;18.20;77.60
21518;DHT22;61765;45.794;24.150;2022-11-10T17:23:27;18.20;77.70
21518;DHT22;61765;45.794;24.150;2022-11-10T17:31:54;18.10;77.70
21518;DHT22;61765;45.794;24.150;2022-11-10T17:40:20;18.10;77.90
21518;DHT22;61765;45.794;24.150;2022-11-10T17:48:47;18.10;78.20
21518;DHT22;61765;45.794;24.150;2022-11-10T17:57:14;18.10;78.10
21518;DHT22;61765;45.794;24.150;2022-11-10T18:05:41;18.10;78.30
21518;DHT22;61765;45.794;24.150;2022-11-10T18:14:05;18.00;78.60
21518;DHT22;61765;45.794;24.150;2022-11-10T18:22:31;18.00;78.60
21518;DHT22;61765;45.794;24.150;2022-11-10T18:30:55;18.00;78.80
21518;DHT22;61765;45.794;24.150;2022-11-10T18:39:22;18.00;78.90
21518;DHT22;61765;45.794;24.150;2022-11-10T18:47:48;18.00;79.00
21518;DHT22;61765;45.794;24.150;2022-11-10T18:56:15;17.90;79.40
21518;DHT22;61765;45.794;24.150;2022-11-10T19:04:39;17.90;79.60
21518;DHT22;61765;45.794;24.150;2022-11-10T19:13:06;17.80;79.90
21518;DHT22;61765;45.794;24.150;2022-11-10T19:21:30;17.80;80.50
21518;DHT22;61765;45.794;24.150;2022-11-10T19:29:57;17.70;80.70
21518;DHT22;61765;45.794;24.150;2022-11-10T19:38:21;17.60;81.50
21518;DHT22;61765;45.794;24.150;2022-11-10T19:46:47;17.50;81.70
21518;DHT22;61765;45.794;24.150;2022-11-10T19:55:11;17.60;81.60
21518;DHT22;61765;45.794;24.150;2022-11-10T20:03:37;17.60;81.70
21518;DHT22;61765;45.794;24.150;2022-11-10T20:12:02;17.50;82.30
21518;DHT22;61765;45.794;24.150;2022-11-10T20:20:29;17.60;82.30
21518;DHT22;61765;45.794;24.150;2022-11-10T20:28:53;17.60;83.00
21518;DHT22;61765;45.794;24.150;2022-11-10T20:37:20;17.60;82.10
21518;DHT22;61765;45.794;24.150;2022-11-10T20:45:43;17.50;82.30
21518;DHT22;61765;45.794;24.150;2022-11-10T20:54:11;17.50;82.50
21518;DHT22;61765;45.794;24.150;2022-11-10T21:02:34;17.40;82.80
21518;DHT22;61765;45.794;24.150;2022-11-10T21:11:03;17.10;83.40
21518;DHT22;61765;45.794;24.150;2022-11-10T21:19:31;16.90;83.60
21518;DHT22;61765;45.794;24.150;2022-11-10T21:28:00;16.80;84.00
21518;DHT22;61765;45.794;24.150;2022-11-10T21:36:25;16.80;84.20
21518;DHT22;61765;45.794;24.150;2022-11-10T21:44:52;16.60;84.30
21518;DHT22;61765;45.794;24.150;2022-11-10T21:53:16;16.70;84.60
21518;DHT22;61765;45.794;24.150;2022-11-10T22:01:43;16.50;85.50
21518;DHT22;61765;45.794;24.150;2022-11-10T22:10:09;16.20;86.60
21518;DHT22;61765;45.794;24.150;2022-11-10T22:18:49;16.30;86.70
21518;DHT22;61765;45.794;24.150;2022-11-10T22:27:14;16.30;86.80
21518;DHT22;61765;45.794;24.150;2022-11-10T22:35:40;16.10;87.40
21518;DHT22;61765;45.794;24.150;2022-11-10T22:44:08;16.10;87.70
21518;DHT22;61765;45.794;24.150;2022-11-10T22:52:36;16.10;87.60
21518;DHT22;61765;45.794;24.150;2022-11-10T23:01:05;16.20;87.70
21518;DHT22;61765;45.794;24.150;2022-11-10T23:09:32;16.20;87.80
21518;DHT22;61765;45.794;24.150;2022-11-10T23:17:56;16.40;87.40
21518;DHT22;61765;45.794;24.150;2022-11-10T23:26:29;16.50;87.10
21518;DHT22;61765;45.794;24.150;2022-11-10T23:34:54;16.60;87.30
21518;DHT22;61765;45.794;24.150;2022-11-10T23:43:20;16.80;87.20
21518;DHT22;61765;45.794;24.150;2022-11-10T23:51:44;16.90;86.70
